Time;durP1;ratioP1;P1;durP2;ratioP2;P2;SDS_P1;SDS_P2;PMS_P1;PMS_P2;Temp;Humidity;BMP_temperature;BMP_pressure;BME280_temperature;BME280_humidity;BME280_pressure;Samples;Min_cycle;Max_cycle;Signal;HPM_P1;HPM_P2
2022/11/09 00:01:04;;;;;;;14.35;7.55;;;;;;;13.19;65.37;101193.50;5071830;28;20064;-80
2022/11/09 00:03:55;;;;;;;18.52;10.25;;;;;;;13.14;65.93;101194.47;5074417;28;20506;-81
2022/11/09 00:06:39;;;;;;;20.10;8.85;;;;;;;13.16;65.96;101197.66;5052935;28;20037;-80
2022/11/09 00:09:24;;;;;;;12.27;6.72;;;;;;;13.50;65.11;101194.16;5051636;28;20052;-80
2022/11/09 00:12:08;;;;;;;20.40;9.43;;;;;;;13.25;65.66;101186.75;5051960;28;20048;-81
2022/11/09 00:14:53;;;;;;;15.68;8.38;;;;;;;13.49;65.88;101191.72;5054569;28;20059;-79
2022/11/09 00:17:38;;;;;;;;;;;;;;;13.43;65.91;101196.56;5059076;28;20044;-80
2022/11/09 00:20:23;;;;;;;20.48;9.35;;;;;;;13.53;64.92;101193.50;5073894;28;19912;-80
2022/11/09 00:23:07;;;;;;;21.58;9.68;;;;;;;13.61;64.63;101192.66;5070423;28;20048;-79
2022/11/09 00:25:52;;;;;;;;;;;;;;;13.20;66.10;101192.38;5070662;28;20551;-79
2022/11/09 00:28:37;;;;;;;15.25;9.52;;;;;;;13.42;65.66;101191.41;5076135;28;20303;-78
2022/11/09 00:31:23;;;;;;;20.42;9.68;;;;;;;13.31;65.70;101190.16;5074095;28;20047;-81
2022/11/09 00:34:08;;;;;;;21.23;9.43;;;;;;;13.31;65.81;101184.69;5063976;28;20048;-81
2022/11/09 00:36:53;;;;;;;;;;;;;;;13.26;65.52;101182.88;5052053;28;20426;-82
2022/11/09 00:39:37;;;;;;;14.32;8.18;;;;;;;13.11;65.63;101169.69;5051833;28;19913;-81
2022/11/09 00:42:22;;;;;;;15.48;8.90;;;;;;;13.10;65.67;101188.03;5068986;23;20044;-80
2022/11/09 00:45:09;;;;;;;10.52;7.22;;;;;;;13.26;65.37;101182.88;5026730;28;20049;-80
2022/11/09 00:47:53;;;;;;;11.95;5.90;;;;;;;13.21;64.89;101192.03;5001781;28;20049;-82
2022/11/09 00:50:38;;;;;;;16.63;6.18;;;;;;;13.12;65.89;101190.44;5005329;28;20049;-80
2022/11/09 00:53:23;;;;;;;15.32;5.68;;;;;;;13.21;65.73;101191.25;5006102;28;20523;-80
2022/11/09 00:56:11;;;;;;;13.25;7.15;;;;;;;13.09;65.78;101193.78;5018758;28;20052;-80
2022/11/09 00:58:56;;;;;;;16.83;6.55;;;;;;;13.07;65.17;101185.09;5018848;28;20396;-80
2022/11/09 01:01:41;;;;;;;12.20;7.35;;;;;;;13.25;64.84;101179.38;5019977;28;20116;-81
2022/11/09 01:04:25;;;;;;;;;;;;;;;13.34;63.85;101173.09;5003652;28;20447;-81
2022/11/09 01:07:10;;;;;;;15.18;6.60;;;;;;;13.32;64.15;101178.88;5012771;28;19913;-81
2022/11/09 01:09:55;;;;;;;;;;;;;;;13.48;63.42;101169.06;5013243;28;20044;-81
2022/11/09 01:12:42;;;;;;;14.75;6.72;;;;;;;13.31;63.67;101171.78;5014506;28;20361;-80
2022/11/09 01:15:27;;;;;;;9.13;5.72;;;;;;;13.10;64.09;101159.91;5018017;28;20057;-80
2022/11/09 01:18:14;;;;;;;11.90;6.57;;;;;;;12.99;64.51;101159.41;5018278;28;20075;-80
2022/11/09 01:21:01;;;;;;;12.02;6.50;;;;;;;13.04;64.39;101169.38;5018309;28;20512;-81
2022/11/09 01:23:48;;;;;;;10.82;6.20;;;;;;;13.25;63.49;101173.13;5011878;28;20041;-81
2022/11/09 01:26:33;;;;;;;11.20;6.32;;;;;;;13.13;64.18;101167.47;5012711;28;20049;-81
2022/11/09 01:29:18;;;;;;;;;;;;;;;13.13;64.71;101170.22;5018722;28;20049;-80
2022/11/09 01:32:03;;;;;;;20.77;7.97;;;;;;;13.13;64.87;101159.28;5018039;28;19918;-81
2022/11/09 01:34:49;;;;;;;15.55;7.50;;;;;;;13.03;65.68;101162.31;5016346;28;20049;-80
2022/11/09 01:37:33;;;;;;;12.63;6.55;;;;;;;13.18;65.77;101167.31;4998416;28;20096;-81
2022/11/09 01:40:19;;;;;;;16.77;8.00;;;;;;;13.19;65.63;101152.53;5009165;28;20068;-81
2022/11/09 01:43:13;;;;;;;20.95;8.88;;;;;;;13.02;65.95;101157.97;5011999;28;20507;-81
2022/11/09 01:46:19;;;;;;;18.23;7.65;;;;;;;13.25;66.11;101143.88;5007398;28;20042;-80
2022/11/09 01:49:11;;;;;;;21.52;8.13;;;;;;;13.12;66.33;101147.56;5019422;28;20054;-81
2022/11/09 01:52:10;;;;;;;15.18;8.50;;;;;;;12.99;67.43;101140.31;4992513;28;20543;-81
2022/11/09 01:55:04;;;;;;;11.43;7.90;;;;;;;13.16;68.13;101151.25;5004446;28;20120;-80
2022/11/09 01:57:52;;;;;;;21.38;8.85;;;;;;;13.29;68.36;101152.22;5017435;28;20060;-80
2022/11/09 02:00:43;;;;;;;13.48;8.25;;;;;;;13.36;68.72;101155.25;5013459;28;20053;-81
2022/11/09 02:03:32;;;;;;;14.82;8.90;;;;;;;13.40;68.28;101145.31;5011847;28;20424;-80
2022/11/09 02:06:19;;;;;;;15.82;8.15;;;;;;;13.43;68.13;101139.19;4998005;28;20056;-81
2022/11/09 02:09:11;;;;;;;25.13;11.02;;;;;;;13.43;68.35;101147.38;5004077;28;20060;-80
2022/11/09 02:11:56;;;;;;;18.92;9.80;;;;;;;13.48;69.09;101169.06;5017437;28;20042;-81
2022/11/09 02:14:44;;;;;;;17.00;10.05;;;;;;;13.46;69.10;101170.53;5017563;28;20072;-81
2022/11/09 02:17:29;;;;;;;14.43;9.48;;;;;;;13.42;68.35;101164.09;4998030;28;20042;-81
2022/11/09 02:20:14;;;;;;;21.67;10.10;;;;;;;13.38;68.65;101163.13;4992178;28;20050;-81
2022/11/09 02:23:00;;;;;;;18.73;9.68;;;;;;;13.34;68.97;101157.50;4995289;28;20046;-81
2022/11/09 02:25:51;;;;;;;25.98;9.40;;;;;;;13.35;68.58;101152.84;5013266;28;20523;-81
2022/11/09 02:28:38;;;;;;;17.17;9.70;;;;;;;13.37;68.53;101158.78;5016999;28;20053;-81
2022/11/09 02:31:28;;;;;;;24.40;10.43;;;;;;;13.36;69.10;101162.66;5011798;28;20048;-81
2022/11/09 02:34:18;;;;;;;16.10;9.75;;;;;;;13.37;68.62;101159.59;5010916;28;20038;-81
2022/11/09 02:37:03;;;;;;;24.67;10.15;;;;;;;13.33;68.47;101147.72;5017260;28;20049;-81
2022/11/09 02:39:50;;;;;;;18.98;10.45;;;;;;;13.18;68.36;101146.28;5014983;28;20053;-81
2022/11/09 02:42:34;;;;;;;23.45;10.77;;;;;;;13.25;68.31;101137.59;4991843;28;20035;-81
2022/11/09 02:45:19;;;;;;;17.65;8.50;;;;;;;13.13;68.69;101134.72;5008277;28;20050;-81
2022/11/09 02:48:05;;;;;;;19.17;11.38;;;;;;;13.31;68.45;101141.75;5017167;28;20401;-81
2022/11/09 02:50:53;;;;;;;17.92;10.57;;;;;;;13.21;68.60;101153.00;5012553;28;20046;-81
2022/11/09 02:53:38;;;;;;;19.27;10.48;;;;;;;13.08;69.04;101159.41;5010979;28;20046;-81
2022/11/09 02:56:23;;;;;;;;;;;;;;;12.97;69.59;101163.56;5011659;28;20054;-80
2022/11/09 02:59:07;;;;;;;21.75;10.95;;;;;;;13.21;68.62;101163.94;5016874;28;19913;-80
2022/11/09 03:01:52;;;;;;;;;;;;;;;13.11;69.21;101172.41;5011567;28;20041;-81
2022/11/09 03:04:37;;;;;;;22.48;10.63;;;;;;;13.18;69.04;101175.50;5016515;28;20296;-81
2022/11/09 03:07:22;;;;;;;20.25;11.98;;;;;;;13.01;68.72;101170.81;5016468;28;20068;-80
2022/11/09 03:10:07;;;;;;;16.92;8.93;;;;;;;13.08;68.68;101184.00;5016764;28;20046;-81
2022/11/09 03:12:53;;;;;;;22.42;12.18;;;;;;;13.03;69.11;101182.22;5012978;28;20057;-81
2022/11/09 03:15:39;;;;;;;23.08;12.60;;;;;;;13.09;68.98;101175.47;5011051;28;20037;-81
2022/11/09 03:18:26;;;;;;;23.38;11.10;;;;;;;13.22;68.53;101179.19;5016589;28;20050;-81
2022/11/09 03:21:11;;;;;;;17.10;10.75;;;;;;;13.02;69.37;101188.00;5016615;28;20045;-81
2022/11/09 03:23:56;;;;;;;18.75;8.82;;;;;;;13.01;69.76;101184.47;5011434;28;20034;-81
2022/11/09 03:26:41;;;;;;;23.10;11.23;;;;;;;13.01;70.19;101180.91;4996981;28;20053;-81
2022/11/09 03:29:26;;;;;;;25.75;10.68;;;;;;;13.09;69.84;101183.69;4991590;28;20051;-81
2022/11/09 03:32:13;;;;;;;18.67;11.88;;;;;;;13.01;70.29;101175.47;4996042;28;20038;-80
2022/11/09 03:34:58;;;;;;;17.63;9.63;;;;;;;12.97;70.60;101172.56;5002182;28;20041;-80
2022/11/09 03:37:43;;;;;;;15.40;8.63;;;;;;;13.00;70.50;101179.34;5010692;28;20076;-80
2022/11/09 03:40:28;;;;;;;15.57;8.75;;;;;;;13.55;68.31;101182.25;5013040;28;20053;-79
2022/11/09 03:43:14;;;;;;;15.55;9.98;;;;;;;13.59;67.58;101183.19;5010470;28;20048;-80
2022/11/09 03:45:59;;;;;;;22.35;10.70;;;;;;;13.05;70.39;101182.72;4990825;28;20057;-80
2022/11/09 03:48:44;;;;;;;;;;;;;;;13.31;68.15;101185.47;4997110;28;20050;-80
2022/11/09 03:51:29;;;;;;;19.17;10.85;;;;;;;13.28;67.96;101181.47;4990825;28;20373;-79
2022/11/09 03:54:13;;;;;;;19.13;10.52;;;;;;;13.06;69.43;101183.50;5002628;28;20041;-80
2022/11/09 03:56:58;;;;;;;19.65;11.25;;;;;;;12.95;70.05;101184.94;5015990;28;20045;-80
2022/11/09 03:59:42;;;;;;;22.17;12.23;;;;;;;13.09;70.42;101193.78;4996690;28;20042;-80
2022/11/09 04:02:27;;;;;;;22.27;11.32;;;;;;;12.94;70.74;101186.06;4989700;28;20046;-80
2022/11/09 04:05:11;;;;;;;19.23;8.23;;;;;;;13.19;69.89;101193.50;5012752;28;20042;-81
2022/11/09 04:07:57;;;;;;;20.75;11.95;;;;;;;12.99;70.61;101189.44;5010292;28;20053;-80
2022/11/09 04:10:42;;;;;;;22.35;11.50;;;;;;;12.89;71.03;101180.75;5009006;28;20046;-80
2022/11/09 04:13:26;;;;;;;22.23;11.50;;;;;;;12.88;71.09;101182.69;4992095;28;20486;-80
2022/11/09 04:16:11;;;;;;;16.13;9.15;;;;;;;12.91;70.47;101181.22;4990643;28;20497;-80
2022/11/09 04:18:56;;;;;;;14.32;7.82;;;;;;;12.93;70.15;101179.00;4999201;28;20069;-81
2022/11/09 04:21:40;;;;;;;23.83;10.90;;;;;;;13.07;69.79;101185.91;4994009;28;20049;-81
2022/11/09 04:24:25;;;;;;;;;;;;;;;12.99;70.08;101191.38;4989599;28;20493;-81
2022/11/09 04:27:10;;;;;;;19.30;11.30;;;;;;;12.96;70.53;101186.53;4996000;28;19972;-80
2022/11/09 04:29:56;;;;;;;23.05;11.52;;;;;;;12.94;71.10;101186.06;5008927;28;20455;-81
2022/11/09 04:32:41;;;;;;;21.58;11.32;;;;;;;13.01;71.00;101186.38;5009675;28;20050;-80
2022/11/09 04:35:27;;;;;;;19.38;9.45;;;;;;;12.99;70.75;101186.72;5015707;28;20046;-81
2022/11/09 04:38:12;;;;;;;20.38;11.70;;;;;;;13.18;70.08;101183.69;5013995;28;20061;-81
2022/11/09 04:41:02;;;;;;;23.02;11.38;;;;;;;13.11;70.45;101183.34;5015484;28;20046;-81
2022/11/09 04:43:47;;;;;;;23.88;9.93;;;;;;;13.01;70.90;101180.91;5010514;28;20030;-81
2022/11/09 04:46:31;;;;;;;13.45;7.45;;;;;;;13.34;69.74;101184.03;5013750;28;20057;-80
2022/11/09 04:49:16;;;;;;;;;;;;;;;13.14;70.29;101180.81;5015667;28;20041;-81
2022/11/09 04:52:01;;;;;;;17.48;9.00;;;;;;;12.94;70.59;101183.34;5009663;28;19917;-80
2022/11/09 04:54:45;;;;;;;17.58;9.68;;;;;;;13.02;70.79;101179.81;5009642;28;20520;-81
2022/11/09 04:57:30;;;;;;;15.15;9.50;;;;;;;13.08;70.83;101167.59;5015255;28;20116;-81
2022/11/09 05:00:15;;;;;;;21.88;9.20;;;;;;;13.00;70.36;101171.16;5015011;28;20053;-81
2022/11/09 05:03:04;;;;;;;18.55;8.70;;;;;;;12.91;70.68;101167.59;5012346;28;20049;-80
2022/11/09 05:05:49;;;;;;;18.60;8.68;;;;;;;12.92;70.09;101174.66;5009529;28;20056;-80
2022/11/09 05:08:33;;;;;;;19.88;8.68;;;;;;;12.92;69.90;101175.47;5014497;28;20052;-81
2022/11/09 05:11:18;;;;;;;12.65;6.22;;;;;;;12.93;69.77;101173.53;5003783;28;20045;-80
2022/11/09 05:14:03;;;;;;;16.20;6.03;;;;;;;12.93;69.36;101173.53;5009272;28;20052;-80
2022/11/09 05:16:49;;;;;;;14.65;7.78;;;;;;;13.11;68.58;101166.94;5009720;28;20416;-79
2022/11/09 05:19:35;;;;;;;11.95;7.38;;;;;;;12.92;69.18;101169.19;5008714;28;20049;-81
2022/11/09 05:25:25;;;;;;;16.15;7.75;;;;;;;12.94;69.90;101167.75;5004868;28;20049;-80
2022/11/09 05:28:10;;;;;;;12.75;7.38;;;;;;;12.90;69.93;101157.81;5014266;28;20041;-80
2022/11/09 05:30:55;;;;;;;15.32;7.82;;;;;;;12.90;70.12;101166.78;5011069;28;20053;-80
2022/11/09 05:33:39;;;;;;;16.02;8.32;;;;;;;12.99;69.75;101167.59;5008602;28;20049;-80
2022/11/09 05:36:26;;;;;;;10.60;5.82;;;;;;;12.97;68.83;101158.13;5016412;28;20057;-82
2022/11/09 05:39:11;;;;;;;19.33;6.72;;;;;;;13.26;68.67;101166.50;5018133;28;20064;-81
2022/11/09 05:41:56;;;;;;;15.85;8.07;;;;;;;12.94;70.18;101167.75;5012367;28;20116;-80
2022/11/09 05:44:41;;;;;;;11.85;7.45;;;;;;;12.81;71.07;101166.78;5017863;28;20041;-81
2022/11/09 05:47:26;;;;;;;18.40;7.82;;;;;;;12.79;71.63;101158.13;5004634;28;20052;-80
2022/11/09 05:50:12;;;;;;;15.55;8.60;;;;;;;12.71;72.15;101161.63;5006281;28;20045;-81
2022/11/09 05:52:59;;;;;;;15.52;8.45;;;;;;;12.75;72.22;101159.03;5015098;28;20053;-81
2022/11/09 05:55:44;;;;;;;13.77;8.57;;;;;;;12.71;71.45;101164.34;5017577;28;20041;-80
2022/11/09 05:58:28;;;;;;;15.73;9.52;;;;;;;12.78;71.69;101161.16;5012142;28;20072;-80
2022/11/09 06:01:14;;;;;;;;;;;;;;;12.94;70.94;101164.22;5011754;28;20057;-80
2022/11/09 06:03:59;;;;;;;15.55;8.90;;;;;;;12.98;70.10;101166.00;5010233;28;19914;-79
2022/11/09 06:06:43;;;;;;;10.55;6.90;;;;;;;12.91;70.46;101170.31;5007297;28;20511;-79
2022/11/09 06:09:28;;;;;;;18.15;9.60;;;;;;;12.91;71.02;101162.13;4991788;28;20054;-79
2022/11/09 06:12:13;;;;;;;14.95;7.65;;;;;;;12.82;72.37;101164.84;5013470;28;20527;-79
2022/11/09 06:14:57;;;;;;;17.92;9.52;;;;;;;12.84;71.46;101160.69;5012192;28;20057;-79
2022/11/09 06:17:41;;;;;;;25.95;9.73;;;;;;;12.83;71.00;101164.53;5010944;28;20049;-78
2022/11/09 06:20:27;;;;;;;27.80;12.13;;;;;;;12.95;69.59;101176.75;5009439;28;20064;-79
2022/11/09 06:23:12;;;;;;;24.73;12.48;;;;;;;12.98;68.84;101176.09;4993366;28;20038;-79
2022/11/09 06:26:08;;;;;;;18.83;10.02;;;;;;;13.07;68.67;101182.38;5001709;28;20046;-78
2022/11/09 06:28:53;;;;;;;19.50;12.82;;;;;;;13.00;69.05;101171.16;5012134;28;20037;-78
2022/11/09 06:31:37;;;;;;;22.75;13.23;;;;;;;13.06;68.91;101175.31;5011664;28;20050;-78
2022/11/09 06:34:22;;;;;;;24.70;12.75;;;;;;;12.86;69.91;101176.72;5003785;28;20046;-80
2022/11/09 06:37:06;;;;;;;23.20;9.65;;;;;;;12.55;71.01;101184.19;5012137;28;20504;-81
2022/11/09 06:39:51;;;;;;;28.85;16.38;;;;;;;12.35;71.64;101175.47;5011280;28;20523;-81
2022/11/09 06:42:36;;;;;;;28.83;16.52;;;;;;;12.51;70.87;101175.84;5010594;28;20042;-81
2022/11/09 06:45:20;;;;;;;24.42;12.73;;;;;;;12.40;72.99;101186.25;5014799;28;20038;-81
2022/11/09 06:48:05;;;;;;;;;;;;;;;12.19;76.26;101200.78;5013086;28;20046;-81
2022/11/09 06:50:49;;;;;;;24.90;12.43;;;;;;;12.05;76.71;101202.78;5008229;28;19914;-79
2022/11/09 06:53:36;;;;;;;15.90;8.90;;;;;;;12.11;79.04;101204.25;5006895;28;20042;-80
2022/11/09 06:56:21;;;;;;;20.88;11.98;;;;;;;12.17;79.81;101205.72;5049594;28;20053;-80
2022/11/09 06:59:06;;;;;;;;;;;;;;;12.15;78.10;101189.69;5035872;28;20034;-80
2022/11/09 07:01:51;;;;;;;24.48;13.63;;;;;;;12.18;78.24;101196.44;5013883;28;19926;-80
2022/11/09 07:04:36;;;;;;;27.15;13.85;;;;;;;12.08;77.94;101202.16;5013449;28;20416;-81
2022/11/09 07:07:20;;;;;;;27.30;13.95;;;;;;;12.15;78.82;101205.22;5003127;28;20401;-80
2022/11/09 07:10:05;;;;;;;23.20;14.85;;;;;;;12.00;78.87;101198.25;4995636;28;20409;-81
2022/11/09 07:12:50;;;;;;;;;;;;;;;12.06;78.47;101201.66;5010790;28;20041;-81
2022/11/09 07:15:36;;;;;;;26.52;15.55;;;;;;;12.02;78.80;101190.59;5009795;28;20181;-81
2022/11/09 07:18:21;;;;;;;34.88;17.23;;;;;;;12.14;78.61;101193.50;4991196;28;20039;-80
2022/11/09 07:21:06;;;;;;;26.88;15.73;;;;;;;12.10;78.24;101189.81;5010029;28;20050;-81
2022/11/09 07:23:51;;;;;;;31.63;17.40;;;;;;;12.09;78.32;101195.59;5008866;28;20034;-80
2022/11/09 07:26:36;;;;;;;30.65;17.17;;;;;;;12.00;78.34;101195.53;5008286;28;20054;-80
2022/11/09 07:29:20;;;;;;;;;;;;;;;11.91;79.49;101197.41;5010322;28;20046;-80
2022/11/09 07:32:05;;;;;;;24.63;14.05;;;;;;;12.52;80.56;101196.56;5009603;28;19913;-80
2022/11/09 07:34:49;;;;;;;21.58;13.68;;;;;;;12.95;79.01;101212.25;5006380;28;20501;-79
2022/11/09 07:37:34;;;;;;;23.95;11.35;;;;;;;13.47;78.90;101215.81;5010709;28;20045;-80
2022/11/09 07:40:19;;;;;;;18.25;9.20;;;;;;;13.83;77.25;101219.00;5013983;28;20049;-79
2022/11/09 07:43:05;;;;;;;;;;;;;;;13.84;74.25;101215.16;4995184;28;20421;-79
2022/11/09 07:45:49;;;;;;;17.33;8.77;;;;;;;13.94;75.20;101216.72;5006696;28;19913;-78
2022/11/09 07:48:34;;;;;;;30.05;10.73;;;;;;;14.16;74.94;101210.25;5009655;28;20416;-78
2022/11/09 07:51:19;;;;;;;;;;;;;;;14.27;73.93;101206.84;4999712;28;20054;-77
2022/11/09 07:54:03;;;;;;;29.42;12.73;;;;;;;14.40;72.41;101210.50;5003153;28;19921;-78
2022/11/09 07:56:48;;;;;;;20.75;11.50;;;;;;;14.41;70.90;101217.59;5013793;28;20037;-78
2022/11/09 07:59:33;;;;;;;27.05;16.35;;;;;;;14.33;69.62;101210.16;5009180;28;20046;-77
2022/11/09 08:02:18;;;;;;;26.95;16.42;;;;;;;14.33;69.87;101205.50;5010504;28;20066;-78
2022/11/09 08:05:03;;;;;;;26.60;15.88;;;;;;;14.38;69.28;101197.13;5010225;28;20396;-77
2022/11/09 08:07:56;;;;;;;29.55;17.13;;;;;;;14.44;69.25;101195.81;5010172;28;20058;-78
2022/11/09 08:10:43;;;;;;;28.25;15.85;;;;;;;14.53;68.73;101190.31;5008513;28;20065;-77
2022/11/09 08:13:27;;;;;;;28.05;15.90;;;;;;;14.41;69.20;101193.75;5004242;28;20041;-79
2022/11/09 08:16:12;;;;;;;26.50;16.30;;;;;;;14.67;68.79;101187.34;5004110;28;20037;-77
2022/11/09 08:18:57;;;;;;;25.00;16.90;;;;;;;14.73;68.45;101194.25;4992323;28;20429;-79
2022/11/09 08:21:41;;;;;;;35.33;17.83;;;;;;;14.53;68.60;101188.38;4989975;28;20047;-79
2022/11/09 08:24:26;;;;;;;23.60;13.82;;;;;;;14.30;68.78;101187.00;4989726;28;20042;-78
2022/11/09 08:27:11;;;;;;;;;;;;;;;14.29;70.49;101199.09;4995116;28;20037;-78
2022/11/09 08:29:55;;;;;;;30.92;17.58;;;;;;;14.32;69.93;101203.09;5013592;28;20492;-78
2022/11/09 08:32:41;;;;;;;35.97;16.42;;;;;;;14.45;70.54;101191.97;5004551;28;20517;-79
2022/11/09 08:35:26;;;;;;;30.15;17.13;;;;;;;14.42;69.59;101195.38;5004581;28;20054;-79
2022/11/09 08:38:11;;;;;;;26.85;15.80;;;;;;;14.58;70.21;101205.75;4988829;28;20042;-79
2022/11/09 08:40:57;;;;;;;;;;;;;;;14.67;68.78;101198.31;4990105;28;20050;-79
2022/11/09 08:43:41;;;;;;;34.10;15.77;;;;;;;14.71;68.97;101196.50;4989593;28;19914;-79
2022/11/09 08:46:26;;;;;;;29.83;16.50;;;;;;;14.70;68.39;101205.84;4989651;28;20641;-79
2022/11/09 08:49:12;;;;;;;26.63;16.23;;;;;;;14.68;68.96;101205.38;5006585;28;20043;-79
2022/11/09 08:51:56;;;;;;;31.40;16.98;;;;;;;14.76;68.90;101212.72;5004909;28;20050;-79
2022/11/09 08:54:41;;;;;;;;;;;;;;;15.01;68.65;101216.44;5003276;28;20047;-79
2022/11/09 08:57:26;;;;;;;29.27;17.50;;;;;;;14.80;67.82;101216.41;5020945;28;19913;-78
2022/11/09 09:00:14;;;;;;;27.40;16.55;;;;;;;14.89;68.42;101214.41;5005423;28;20279;-78
2022/11/09 09:03:03;;;;;;;28.70;19.08;;;;;;;14.84;68.40;101211.88;4988982;28;20047;-78
2022/11/09 09:05:47;;;;;;;29.17;16.40;;;;;;;15.04;68.20;101222.06;4989390;28;20043;-78
2022/11/09 09:08:32;;;;;;;;;;;;;;;15.32;66.87;101225.09;5005226;28;20058;-79
2022/11/09 09:11:17;;;;;;;30.50;18.63;;;;;;;15.37;66.15;101222.94;4991394;28;19914;-79
2022/11/09 09:14:01;;;;;;;18.10;12.68;;;;;;;15.34;66.95;101226.34;5006448;28;20046;-79
2022/11/09 09:16:46;;;;;;;;;;;;;;;15.26;66.80;101229.16;5011166;28;20034;-79
2022/11/09 09:19:31;;;;;;;26.33;17.40;;;;;;;15.23;66.93;101230.63;5012046;28;19914;-78
2022/11/09 09:22:16;;;;;;;29.42;16.65;;;;;;;15.02;68.27;101232.56;5002905;28;20046;-79
2022/11/09 09:25:01;;;;;;;25.48;15.38;;;;;;;15.07;68.32;101229.63;5014164;28;20496;-79
2022/11/09 09:27:46;;;;;;;38.17;21.95;;;;;;;15.05;68.59;101239.28;5010071;28;20042;-79
2022/11/09 09:30:31;;;;;;;;;;;;;;;14.96;69.13;101240.16;5010856;28;20037;-78
2022/11/09 09:33:15;;;;;;;31.42;18.85;;;;;;;14.79;69.36;101242.19;5011162;28;20540;-78
2022/11/09 09:36:00;;;;;;;23.15;15.30;;;;;;;14.79;69.67;101250.38;5006022;28;20046;-79
2022/11/09 09:38:45;;;;;;;;;;;;;;;14.90;69.61;101244.22;5010778;28;20065;-78
2022/11/09 09:41:45;;;;;;;33.67;19.35;;;;;;;14.87;69.79;101241.34;5006890;28;19917;-78
2022/11/09 09:44:48;;;;;;;37.83;20.95;;;;;;;15.07;68.88;101240.56;5022339;28;20413;-78
2022/11/09 09:47:50;;;;;;;28.75;19.17;;;;;;;15.02;68.53;101243.50;5018218;28;20054;-79
2022/11/09 09:50:52;;;;;;;33.80;21.10;;;;;;;14.91;69.28;101254.03;5006021;28;20421;-78
2022/11/09 09:53:46;;;;;;;38.80;24.25;;;;;;;14.54;70.18;101257.59;5019019;28;20042;-78
2022/11/09 09:56:38;;;;;;;34.85;19.02;;;;;;;14.68;70.76;101266.38;5007422;28;20038;-79
2022/11/09 09:59:34;;;;;;;41.50;24.10;;;;;;;14.40;71.08;101248.81;4998676;28;20509;-78
2022/11/09 10:02:25;;;;;;;39.60;24.10;;;;;;;14.35;72.27;101246.22;5004139;28;20121;-78
2022/11/09 10:05:14;;;;;;;41.78;24.75;;;;;;;14.20;72.19;101244.81;5027192;28;20046;-78
2022/11/09 10:08:19;;;;;;;41.92;26.80;;;;;;;14.15;72.47;101245.00;4999440;28;20050;-78
2022/11/09 10:11:15;;;;;;;45.67;27.00;;;;;;;13.98;73.62;101231.34;5004649;28;20038;-79
2022/11/09 10:14:29;;;;;;;34.53;23.13;;;;;;;14.18;73.26;101241.59;5001592;28;20039;-79
2022/11/09 10:17:20;;;;;;;38.60;23.80;;;;;;;14.50;72.59;101248.44;5039557;28;20325;-79
2022/11/09 10:20:11;;;;;;;37.28;24.38;;;;;;;14.73;71.43;101252.50;5008967;28;20035;-79
2022/11/09 10:23:17;;;;;;;34.70;22.25;;;;;;;14.84;71.21;101248.28;5014644;28;20045;-79
2022/11/09 10:26:09;;;;;;;48.80;27.58;;;;;;;14.67;70.90;101226.47;5044871;28;20034;-78
2022/11/09 10:29:00;;;;;;;46.33;26.52;;;;;;;14.60;71.83;101236.31;5036002;28;20032;-79
2022/11/09 10:31:46;;;;;;;38.40;26.60;;;;;;;14.41;72.47;101239.47;5013801;28;20042;-79
2022/11/09 10:34:52;;;;;;;46.40;25.08;;;;;;;14.30;73.12;101235.44;5028803;28;20038;-79
2022/11/09 10:37:45;;;;;;;44.38;28.02;;;;;;;13.99;73.11;101216.56;5014412;28;20037;-79
2022/11/09 10:40:36;;;;;;;45.65;28.85;;;;;;;14.13;72.93;101217.16;5013097;28;20042;-79
2022/11/09 10:43:39;;;;;;;53.67;30.33;;;;;;;14.06;73.70;101206.75;5031619;28;20051;-79
2022/11/09 10:47:04;;;;;;;49.25;28.20;;;;;;;13.99;75.21;101202.88;4995170;28;20391;-78
2022/11/09 10:50:23;;;;;;;43.08;27.75;;;;;;;14.48;73.39;101201.44;5010493;28;20050;-79
2022/11/09 10:53:30;;;;;;;42.80;25.45;;;;;;;14.92;71.75;101194.59;5012725;28;20050;-79
2022/11/09 10:56:43;;;;;;;43.72;27.23;;;;;;;15.21;70.34;101202.75;5007084;28;20046;-79
2022/11/09 10:59:52;;;;;;;42.40;26.00;;;;;;;15.12;70.61;101204.75;5036371;28;20042;-79
2022/11/09 11:02:56;;;;;;;44.60;26.35;;;;;;;14.91;71.45;101204.75;5057252;28;20032;-79
2022/11/09 11:06:06;;;;;;;39.80;25.48;;;;;;;15.04;71.45;101202.06;5007549;28;20058;-79
2022/11/09 11:09:10;;;;;;;39.92;25.35;;;;;;;15.41;68.71;101196.47;5034684;28;20042;-79
2022/11/09 11:12:16;;;;;;;38.53;24.23;;;;;;;15.44;68.73;101194.19;5005915;28;20041;-79
2022/11/09 11:15:38;;;;;;;42.40;24.80;;;;;;;15.67;69.08;101204.47;5005810;28;20046;-79
2022/11/09 11:18:46;;;;;;;40.00;24.05;;;;;;;15.85;68.54;101205.09;5025078;28;20054;-79
2022/11/09 11:22:18;;;;;;;44.17;24.98;;;;;;;16.42;67.17;101207.84;5002061;28;20034;-79
2022/11/09 11:25:23;;;;;;;35.60;23.60;;;;;;;16.21;65.66;101196.16;5067422;28;20042;-78
2022/11/09 11:28:49;;;;;;;46.13;24.17;;;;;;;16.17;65.97;101179.56;5028095;28;20046;-79
2022/11/09 11:31:54;;;;;;;33.13;22.65;;;;;;;16.01;66.97;101186.06;5045039;28;20047;-79
2022/11/09 11:34:57;;;;;;;39.60;23.17;;;;;;;15.91;65.65;101181.81;5033828;28;20029;-79
2022/11/09 11:38:38;;;;;;;38.03;22.63;;;;;;;15.53;67.32;101182.06;5015891;28;20054;-79
2022/11/09 11:42:19;;;;;;;41.30;23.23;;;;;;;15.26;69.29;101177.09;5039385;28;20286;-78
2022/11/09 11:45:58;;;;;;;34.33;22.25;;;;;;;15.29;68.72;101151.75;5005325;28;20416;-78
2022/11/09 11:49:13;;;;;;;47.22;23.55;;;;;;;15.09;70.25;101167.06;5001868;28;20042;-79
2022/11/09 11:52:40;;;;;;;29.42;18.40;;;;;;;14.92;69.09;101156.25;4999844;28;20045;-78
2022/11/09 11:55:50;;;;;;;;;;;;;;;14.86;70.99;101169.34;5022601;28;20050;-79
2022/11/09 11:59:30;;;;;;;40.10;21.63;;;;;;;15.13;73.00;101164.47;5007931;28;20387;-78
2022/11/09 12:02:55;;;;;;;36.13;22.38;;;;;;;15.29;72.12;101149.00;5002700;28;20500;-78
2022/11/09 12:06:27;;;;;;;39.55;24.55;;;;;;;15.16;71.26;101152.84;5008074;28;20046;-79
2022/11/09 12:09:34;;;;;;;40.63;23.58;;;;;;;15.25;71.93;101148.88;5024161;28;20500;-80
2022/11/09 12:12:47;;;;;;;36.17;24.77;;;;;;;15.34;72.01;101149.59;5000496;28;20038;-79
2022/11/09 12:16:12;;;;;;;38.35;23.77;;;;;;;15.13;71.46;101140.63;5072550;28;20036;-78
2022/11/09 12:19:47;;;;;;;35.28;24.50;;;;;;;15.06;72.45;101147.78;5112990;28;20047;-78
2022/11/09 12:23:10;;;;;;;42.35;28.38;;;;;;;15.07;72.03;101141.97;5023131;28;20428;-79
2022/11/09 12:26:37;;;;;;;50.47;30.63;;;;;;;14.97;71.96;101147.84;5034039;28;20045;-79
2022/11/09 12:29:47;;;;;;;47.75;30.25;;;;;;;14.67;72.96;101146.28;5006347;28;20049;-79
2022/11/09 12:32:55;;;;;;;47.38;29.63;;;;;;;14.49;73.46;101131.91;5010160;28;20046;-79
2022/11/09 12:36:06;;;;;;;47.47;31.35;;;;;;;14.42;73.49;101134.38;5010781;28;20041;-80
2022/11/09 12:39:27;;;;;;;50.03;30.17;;;;;;;14.37;73.67;101129.09;5011336;28;20050;-80
2022/11/09 12:42:58;;;;;;;47.38;31.13;;;;;;;14.35;74.23;101126.63;5010221;28;20038;-78
2022/11/09 12:46:04;;;;;;;48.60;31.98;;;;;;;14.29;75.08;101121.69;4993142;28;20042;-80
2022/11/09 12:49:30;;;;;;;43.45;24.35;;;;;;;14.30;74.38;101126.81;4995012;28;20035;-80
2022/11/09 12:52:35;;;;;;;48.65;30.70;;;;;;;14.22;75.47;101132.34;4993787;28;20058;-80
2022/11/09 12:55:51;;;;;;;39.47;25.38;;;;;;;14.20;76.52;101142.81;4993417;28;20509;-81
2022/11/09 12:59:26;;;;;;;51.35;31.10;;;;;;;14.17;76.95;101129.81;4993896;28;20509;-82
2022/11/09 13:02:42;;;;;;;52.22;31.70;;;;;;;14.18;77.11;101132.19;5008692;28;20054;-81
2022/11/09 13:05:48;;;;;;;;;;;;;;;14.13;77.27;101130.44;5004277;28;20038;-81
2022/11/09 13:08:59;;;;;;;51.60;30.55;;;;;;;14.14;77.57;101129.31;5011303;28;19913;-82
2022/11/09 13:12:33;;;;;;;51.03;28.92;;;;;;;14.15;77.30;101127.38;5020070;28;20419;-80
2022/11/09 13:15:39;;;;;;;45.97;26.38;;;;;;;14.08;77.48;101127.09;5011947;28;20046;-80